sensor_id;sensor_type;location;lat;lon;timestamp;pressure;altitude;pressure_sealevel;temperature
65738;BMP280;52478;51.844;6.582;2023-12-07T00:02:22;101661.22;;;19.37
65738;BMP280;52478;51.844;6.582;2023-12-07T00:04:49;101660.44;;;19.37
65738;BMP280;52478;51.844;6.582;2023-12-07T00:07:15;101656.91;;;19.36
65738;BMP280;52478;51.844;6.582;2023-12-07T00:09:43;101663.72;;;19.35
65738;BMP280;52478;51.844;6.582;2023-12-07T00:12:09;101663.72;;;19.35
65738;BMP280;52478;51.844;6.582;2023-12-07T00:14:36;101655.13;;;19.33
65738;BMP280;52478;51.844;6.582;2023-12-07T00:17:02;101661.44;;;19.34
65738;BMP280;52478;51.844;6.582;2023-12-07T00:19:29;101665.47;;;19.33
65738;BMP280;52478;51.844;6.582;2023-12-07T00:21:55;101652.06;;;19.31
65738;BMP280;52478;51.844;6.582;2023-12-07T00:24:22;101658.91;;;19.30
65738;BMP280;52478;51.844;6.582;2023-12-07T00:26:50;101651.78;;;19.29
65738;BMP280;52478;51.844;6.582;2023-12-07T00:29:16;101644.25;;;19.30
65738;BMP280;52478;51.844;6.582;2023-12-07T00:31:42;101653.03;;;19.28
65738;BMP280;52478;51.844;6.582;2023-12-07T00:34:09;101651.53;;;19.27
65738;BMP280;52478;51.844;6.582;2023-12-07T00:36:36;101656.59;;;19.29
65738;BMP280;52478;51.844;6.582;2023-12-07T00:39:04;101654.56;;;19.29
65738;BMP280;52478;51.844;6.582;2023-12-07T00:41:30;101655.81;;;19.28
65738;BMP280;52478;51.844;6.582;2023-12-07T00:43:58;101646.75;;;19.28
65738;BMP280;52478;51.844;6.582;2023-12-07T00:46:25;101656.28;;;19.27
65738;BMP280;52478;51.844;6.582;2023-12-07T00:48:51;101644.47;;;19.26
65738;BMP280;52478;51.844;6.582;2023-12-07T00:51:17;101650.03;;;19.26
65738;BMP280;52478;51.844;6.582;2023-12-07T00:53:44;101665.91;;;19.26
65738;BMP280;52478;51.844;6.582;2023-12-07T00:56:10;101665.13;;;19.25
65738;BMP280;52478;51.844;6.582;2023-12-07T00:58:37;101669.16;;;19.24
65738;BMP280;52478;51.844;6.582;2023-12-07T01:01:05;101670.41;;;19.23
65738;BMP280;52478;51.844;6.582;2023-12-07T01:03:31;101666.09;;;19.22
65738;BMP280;52478;51.844;6.582;2023-12-07T01:05:58;101666.09;;;19.22
65738;BMP280;52478;51.844;6.582;2023-12-07T01:08:24;101663.31;;;19.22
65738;BMP280;52478;51.844;6.582;2023-12-07T01:10:51;101667.63;;;19.23
65738;BMP280;52478;51.844;6.582;2023-12-07T01:13:17;101669.94;;;19.25
65738;BMP280;52478;51.844;6.582;2023-12-07T01:15:44;101655.75;;;19.23
65738;BMP280;52478;51.844;6.582;2023-12-07T01:18:11;101658.81;;;19.25
65738;BMP280;52478;51.844;6.582;2023-12-07T01:20:38;101674.72;;;19.24
65738;BMP280;52478;51.844;6.582;2023-12-07T01:23:05;101666.09;;;19.22
65738;BMP280;52478;51.844;6.582;2023-12-07T01:25:31;101674.44;;;19.22
65738;BMP280;52478;51.844;6.582;2023-12-07T01:27:58;101681.25;;;19.21
65738;BMP280;52478;51.844;6.582;2023-12-07T01:30:24;101673.69;;;19.22
65738;BMP280;52478;51.844;6.582;2023-12-07T01:32:51;101675.72;;;19.21
65738;BMP280;52478;51.844;6.582;2023-12-07T01:35:19;101669.38;;;19.21
65738;BMP280;52478;51.844;6.582;2023-12-07T01:37:46;101664.59;;;19.21
65738;BMP280;52478;51.844;6.582;2023-12-07T01:40:12;101668.59;;;19.20
65738;BMP280;52478;51.844;6.582;2023-12-07T01:42:41;101663.06;;;19.20
65738;BMP280;52478;51.844;6.582;2023-12-07T01:45:15;101665.09;;;19.20
65738;BMP280;52478;51.844;6.582;2023-12-07T01:47:42;101663.06;;;19.20
65738;BMP280;52478;51.844;6.582;2023-12-07T01:50:09;101676.66;;;19.18
65738;BMP280;52478;51.844;6.582;2023-12-07T01:52:39;101675.88;;;19.18
65738;BMP280;52478;51.844;6.582;2023-12-07T01:55:09;101667.53;;;19.18
65738;BMP280;52478;51.844;6.582;2023-12-07T01:57:36;101664.78;;;19.18
65738;BMP280;52478;51.844;6.582;2023-12-07T02:00:03;101666.84;;;19.17
65738;BMP280;52478;51.844;6.582;2023-12-07T02:02:30;101667.53;;;19.18
65738;BMP280;52478;51.844;6.582;2023-12-07T02:04:58;101673.63;;;19.16
65738;BMP280;52478;51.844;6.582;2023-12-07T02:07:26;101684.75;;;19.16
65738;BMP280;52478;51.844;6.582;2023-12-07T02:09:54;101681.97;;;19.16
65738;BMP280;52478;51.844;6.582;2023-12-07T02:12:20;101682.44;;;19.15
65738;BMP280;52478;51.844;6.582;2023-12-07T02:14:47;101687.19;;;19.14
65738;BMP280;52478;51.844;6.582;2023-12-07T02:17:17;101680.88;;;19.14
65738;BMP280;52478;51.844;6.582;2023-12-07T02:19:50;101682.94;;;19.13
65738;BMP280;52478;51.844;6.582;2023-12-07T02:22:27;101687.69;;;19.13
65738;BMP280;52478;51.844;6.582;2023-12-07T02:25:06;101695.28;;;19.12
65738;BMP280;52478;51.844;6.582;2023-12-07T02:27:38;101690.94;;;19.11
65738;BMP280;52478;51.844;6.582;2023-12-07T02:30:06;101694.97;;;19.10
65738;BMP280;52478;51.844;6.582;2023-12-07T02:32:33;101692.97;;;19.11
65738;BMP280;52478;51.844;6.582;2023-12-07T02:35:00;101693.44;;;19.09
65738;BMP280;52478;51.844;6.582;2023-12-07T02:37:28;101693.44;;;19.09
65738;BMP280;52478;51.844;6.582;2023-12-07T02:39:55;101690.69;;;19.09
65738;BMP280;52478;51.844;6.582;2023-12-07T02:42:22;101686.09;;;19.06
65738;BMP280;52478;51.844;6.582;2023-12-07T02:44:53;101679.78;;;19.06
65738;BMP280;52478;51.844;6.582;2023-12-07T02:47:20;101683.63;;;19.08
65738;BMP280;52478;51.844;6.582;2023-12-07T02:49:46;101689.66;;;19.07
65738;BMP280;52478;51.844;6.582;2023-12-07T02:52:13;101685.13;;;19.09
65738;BMP280;52478;51.844;6.582;2023-12-07T02:54:39;101676.78;;;19.09
65738;BMP280;52478;51.844;6.582;2023-12-07T02:57:06;101668.22;;;19.07
65738;BMP280;52478;51.844;6.582;2023-12-07T02:59:32;101678.06;;;19.08
65738;BMP280;52478;51.844;6.582;2023-12-07T03:02:00;101677.75;;;19.06
65738;BMP280;52478;51.844;6.582;2023-12-07T03:04:27;101679.00;;;19.05
65738;BMP280;52478;51.844;6.582;2023-12-07T03:06:53;101684.09;;;19.07
65738;BMP280;52478;51.844;6.582;2023-12-07T03:09:20;101690.91;;;19.06
65738;BMP280;52478;51.844;6.582;2023-12-07T03:11:46;101682.28;;;19.04
65738;BMP280;52478;51.844;6.582;2023-12-07T03:14:13;101683.06;;;19.04
65738;BMP280;52478;51.844;6.582;2023-12-07T03:16:39;101671.97;;;19.04
65738;BMP280;52478;51.844;6.582;2023-12-07T03:19:07;101682.28;;;19.04
65738;BMP280;52478;51.844;6.582;2023-12-07T03:21:34;101680.28;;;19.04
65738;BMP280;52478;51.844;6.582;2023-12-07T03:24:05;101683.78;;;19.05
65738;BMP280;52478;51.844;6.582;2023-12-07T03:26:32;101676.47;;;19.02
65738;BMP280;52478;51.844;6.582;2023-12-07T03:28:59;101683.06;;;19.04
65738;BMP280;52478;51.844;6.582;2023-12-07T03:31:25;101694.19;;;19.04
65738;BMP280;52478;51.844;6.582;2023-12-07T03:33:53;101691.09;;;19.02
65738;BMP280;52478;51.844;6.582;2023-12-07T03:36:21;101688.53;;;18.99
65738;BMP280;52478;51.844;6.582;2023-12-07T03:38:48;101690.25;;;18.96
65738;BMP280;52478;51.844;6.582;2023-12-07T03:41:14;101693.59;;;19.00
65738;BMP280;52478;51.844;6.582;2023-12-07T03:43:41;101688.81;;;19.01
65738;BMP280;52478;51.844;6.582;2023-12-07T03:46:08;101688.03;;;19.00
65738;BMP280;52478;51.844;6.582;2023-12-07T03:48:34;101698.38;;;19.00
65738;BMP280;52478;51.844;6.582;2023-12-07T03:51:01;101697.34;;;18.97
65738;BMP280;52478;51.844;6.582;2023-12-07T03:53:29;101698.38;;;19.00
65738;BMP280;52478;51.844;6.582;2023-12-07T03:55:55;101705.97;;;18.99
65738;BMP280;52478;51.844;6.582;2023-12-07T03:58:22;101699.63;;;18.99
65738;BMP280;52478;51.844;6.582;2023-12-07T04:00:48;101697.63;;;18.99
65738;BMP280;52478;51.844;6.582;2023-12-07T04:03:15;101708.75;;;18.99
65738;BMP280;52478;51.844;6.582;2023-12-07T04:05:41;101701.66;;;18.98
65738;BMP280;52478;51.844;6.582;2023-12-07T04:08:08;101695.56;;;18.94
65738;BMP280;52478;51.844;6.582;2023-12-07T04:10:36;101704.13;;;18.96
65738;BMP280;52478;51.844;6.582;2023-12-07T04:13:02;101699.28;;;18.92
65738;BMP280;52478;51.844;6.582;2023-12-07T04:15:29;101712.75;;;18.98
65738;BMP280;52478;51.844;6.582;2023-12-07T04:17:55;101707.22;;;18.98
65738;BMP280;52478;51.844;6.582;2023-12-07T04:20:22;101709.69;;;18.96
65738;BMP280;52478;51.844;6.582;2023-12-07T04:22:48;101706.66;;;18.94
65738;BMP280;52478;51.844;6.582;2023-12-07T04:25:15;101699.03;;;18.90
65738;BMP280;52478;51.844;6.582;2023-12-07T04:27:43;101708.19;;;18.95
65738;BMP280;52478;51.844;6.582;2023-12-07T04:30:10;101715.72;;;18.95
65738;BMP280;52478;51.844;6.582;2023-12-07T04:32:37;101707.41;;;18.95
65738;BMP280;52478;51.844;6.582;2023-12-07T04:35:04;101720.03;;;18.96
65738;BMP280;52478;51.844;6.582;2023-12-07T04:37:32;101720.03;;;18.96
65738;BMP280;52478;51.844;6.582;2023-12-07T04:39:58;101724.06;;;18.95
65738;BMP280;52478;51.844;6.582;2023-12-07T04:42:25;101721.75;;;18.93
65738;BMP280;52478;51.844;6.582;2023-12-07T04:44:53;101728.06;;;18.94
65738;BMP280;52478;51.844;6.582;2023-12-07T04:47:19;101724.53;;;18.93
65738;BMP280;52478;51.844;6.582;2023-12-07T04:49:46;101724.53;;;18.93
65738;BMP280;52478;51.844;6.582;2023-12-07T04:52:13;101721.75;;;18.93
65738;BMP280;52478;51.844;6.582;2023-12-07T04:54:39;101716.69;;;18.92
65738;BMP280;52478;51.844;6.582;2023-12-07T04:57:06;101724.28;;;18.92
65738;BMP280;52478;51.844;6.582;2023-12-07T04:59:34;101723.00;;;18.92
65738;BMP280;52478;51.844;6.582;2023-12-07T05:02:02;101728.53;;;18.92
65738;BMP280;52478;51.844;6.582;2023-12-07T05:04:29;101735.38;;;18.92
65738;BMP280;52478;51.844;6.582;2023-12-07T05:06:55;101732.59;;;18.92
65738;BMP280;52478;51.844;6.582;2023-12-07T05:09:22;101731.31;;;18.92
65738;BMP280;52478;51.844;6.582;2023-12-07T05:11:48;101727.78;;;18.92
65738;BMP280;52478;51.844;6.582;2023-12-07T05:14:15;101736.13;;;18.92
65738;BMP280;52478;51.844;6.582;2023-12-07T05:16:41;101740.13;;;18.91
65738;BMP280;52478;51.844;6.582;2023-12-07T05:19:10;101728.28;;;18.91
65738;BMP280;52478;51.844;6.582;2023-12-07T05:21:37;101730.56;;;18.92
65738;BMP280;52478;51.844;6.582;2023-12-07T05:24:04;101739.38;;;18.91
65738;BMP280;52478;51.844;6.582;2023-12-07T05:26:31;101744.16;;;18.90
65738;BMP280;52478;51.844;6.582;2023-12-07T05:28:58;101745.69;;;18.91
65738;BMP280;52478;51.844;6.582;2023-12-07T05:31:24;101738.59;;;18.90
65738;BMP280;52478;51.844;6.582;2023-12-07T05:33:52;101736.63;;;18.91
65738;BMP280;52478;51.844;6.582;2023-12-07T05:36:19;101737.84;;;18.90
65738;BMP280;52478;51.844;6.582;2023-12-07T05:38:46;101731.53;;;18.89
65738;BMP280;52478;51.844;6.582;2023-12-07T05:41:13;101736.31;;;18.88
65738;BMP280;52478;51.844;6.582;2023-12-07T05:43:40;101733.53;;;18.88
65738;BMP280;52478;51.844;6.582;2023-12-07T05:46:07;101729.22;;;18.88
65738;BMP280;52478;51.844;6.582;2023-12-07T05:48:33;101730.75;;;18.88
65738;BMP280;52478;51.844;6.582;2023-12-07T05:51:01;101719.66;;;18.88
65738;BMP280;52478;51.844;6.582;2023-12-07T05:53:29;101708.03;;;18.85
65738;BMP280;52478;51.844;6.582;2023-12-07T05:55:57;101720.91;;;18.88
65738;BMP280;52478;51.844;6.582;2023-12-07T05:58:24;101714.09;;;18.88
65738;BMP280;52478;51.844;6.582;2023-12-07T06:00:51;101707.81;;;18.88
65738;BMP280;52478;51.844;6.582;2023-12-07T06:03:17;101703.50;;;18.87
65738;BMP280;52478;51.844;6.582;2023-12-07T06:05:44;101712.59;;;18.88
65738;BMP280;52478;51.844;6.582;2023-12-07T06:08:11;101714.09;;;18.88
65738;BMP280;52478;51.844;6.582;2023-12-07T06:10:39;101718.13;;;18.88
65738;BMP280;52478;51.844;6.582;2023-12-07T06:13:06;101726.44;;;18.88
65738;BMP280;52478;51.844;6.582;2023-12-07T06:15:33;101716.63;;;18.87
65738;BMP280;52478;51.844;6.582;2023-12-07T06:17:59;101702.38;;;18.79
65738;BMP280;52478;51.844;6.582;2023-12-07T06:20:26;101715.09;;;18.86
65738;BMP280;52478;51.844;6.582;2023-12-07T06:22:53;101709.56;;;18.86
65738;BMP280;52478;51.844;6.582;2023-12-07T06:25:20;101717.88;;;18.86
65738;BMP280;52478;51.844;6.582;2023-12-07T06:27:48;101711.09;;;18.87
65738;BMP280;52478;51.844;6.582;2023-12-07T06:30:14;101702.47;;;18.85
65738;BMP280;52478;51.844;6.582;2023-12-07T06:32:41;101702.94;;;18.83
65738;BMP280;52478;51.844;6.582;2023-12-07T06:35:08;101710.03;;;18.84
65738;BMP280;52478;51.844;6.582;2023-12-07T06:37:34;101712.03;;;18.84
65738;BMP280;52478;51.844;6.582;2023-12-07T06:40:01;101719.13;;;18.85
65738;BMP280;52478;51.844;6.582;2023-12-07T06:42:29;101724.69;;;18.85
65738;BMP280;52478;51.844;6.582;2023-12-07T06:44:57;101728.66;;;18.84
65738;BMP280;52478;51.844;6.582;2023-12-07T06:47:24;101728.66;;;18.84
65738;BMP280;52478;51.844;6.582;2023-12-07T06:49:50;101728.66;;;18.84
65738;BMP280;52478;51.844;6.582;2023-12-07T06:52:17;101718.34;;;18.84
65738;BMP280;52478;51.844;6.582;2023-12-07T06:54:43;101719.03;;;18.79
65738;BMP280;52478;51.844;6.582;2023-12-07T06:57:10;101727.31;;;18.59
65738;BMP280;52478;51.844;6.582;2023-12-07T06:59:36;101727.13;;;18.63
65738;BMP280;52478;51.844;6.582;2023-12-07T07:02:04;101720.59;;;18.66
65738;BMP280;52478;51.844;6.582;2023-12-07T07:04:31;101724.34;;;18.63
65738;BMP280;52478;51.844;6.582;2023-12-07T07:06:57;101721.28;;;18.61
65738;BMP280;52478;51.844;6.582;2023-12-07T07:09:24;101722.25;;;18.58
65738;BMP280;52478;51.844;6.582;2023-12-07T07:11:50;101723.56;;;18.62
65738;BMP280;52478;51.844;6.582;2023-12-07T07:14:18;101721.28;;;18.61
65738;BMP280;52478;51.844;6.582;2023-12-07T07:16:45;101722.78;;;18.62
65738;BMP280;52478;51.844;6.582;2023-12-07T07:19:13;101724.91;;;18.67
65738;BMP280;52478;51.844;6.582;2023-12-07T07:21:42;101715.03;;;18.66
65738;BMP280;52478;51.844;6.582;2023-12-07T07:24:09;101717.00;;;18.60
65738;BMP280;52478;51.844;6.582;2023-12-07T07:26:35;101711.72;;;18.62
65738;BMP280;52478;51.844;6.582;2023-12-07T07:29:02;101710.78;;;18.50
65738;BMP280;52478;51.844;6.582;2023-12-07T07:31:29;101717.50;;;18.44
65738;BMP280;52478;51.844;6.582;2023-12-07T07:33:55;101713.72;;;18.27
65738;BMP280;52478;51.844;6.582;2023-12-07T07:36:23;101715.44;;;18.10
65738;BMP280;52478;51.844;6.582;2023-12-07T07:38:50;101719.03;;;18.16
65738;BMP280;52478;51.844;6.582;2023-12-07T07:41:16;101721.75;;;18.10
65738;BMP280;52478;51.844;6.582;2023-12-07T07:43:43;101722.91;;;18.04
65738;BMP280;52478;51.844;6.582;2023-12-07T07:46:10;101721.75;;;17.96
65738;BMP280;52478;51.844;6.582;2023-12-07T07:48:36;101718.69;;;17.94
65738;BMP280;52478;51.844;6.582;2023-12-07T07:51:04;101724.59;;;17.87
65738;BMP280;52478;51.844;6.582;2023-12-07T07:53:32;101722.22;;;17.80
65738;BMP280;52478;51.844;6.582;2023-12-07T07:55:59;101719.63;;;17.76
65738;BMP280;52478;51.844;6.582;2023-12-07T07:58:25;101719.53;;;17.71
65738;BMP280;52478;51.844;6.582;2023-12-07T08:00:52;101718.66;;;17.79
65738;BMP280;52478;51.844;6.582;2023-12-07T08:03:18;101716.44;;;17.69
65738;BMP280;52478;51.844;6.582;2023-12-07T08:05:45;101723.25;;;17.68
65738;BMP280;52478;51.844;6.582;2023-12-07T08:08:12;101733.72;;;17.64
65738;BMP280;52478;51.844;6.582;2023-12-07T08:10:40;101737.75;;;17.63
65738;BMP280;52478;51.844;6.582;2023-12-07T08:13:06;101734.41;;;17.59
65738;BMP280;52478;51.844;6.582;2023-12-07T08:15:33;101742.00;;;17.64
65738;BMP280;52478;51.844;6.582;2023-12-07T08:18:00;101751.19;;;17.70
65738;BMP280;52478;51.844;6.582;2023-12-07T08:20:27;101747.69;;;17.69
65738;BMP280;52478;51.844;6.582;2023-12-07T08:22:54;101750.75;;;17.71
65738;BMP280;52478;51.844;6.582;2023-12-07T08:25:20;101737.94;;;17.74
65738;BMP280;52478;51.844;6.582;2023-12-07T08:27:49;101741.34;;;17.69
65738;BMP280;52478;51.844;6.582;2023-12-07T08:30:15;101747.28;;;17.62
65738;BMP280;52478;51.844;6.582;2023-12-07T08:32:42;101749.75;;;17.60
65738;BMP280;52478;51.844;6.582;2023-12-07T08:35:08;101748.25;;;17.59
65738;BMP280;52478;51.844;6.582;2023-12-07T08:37:37;101745.72;;;17.61
65738;BMP280;52478;51.844;6.582;2023-12-07T08:40:05;101742.72;;;17.59
65738;BMP280;52478;51.844;6.582;2023-12-07T08:42:31;101741.75;;;17.62
65738;BMP280;52478;51.844;6.582;2023-12-07T08:44:59;101731.44;;;17.63
65738;BMP280;52478;51.844;6.582;2023-12-07T08:47:25;101745.19;;;17.57
65738;BMP280;52478;51.844;6.582;2023-12-07T08:49:53;101747.38;;;17.53
65738;BMP280;52478;51.844;6.582;2023-12-07T08:52:20;101754.13;;;17.52
65738;BMP280;52478;51.844;6.582;2023-12-07T08:54:46;101742.50;;;17.48
65738;BMP280;52478;51.844;6.582;2023-12-07T08:57:13;101738.63;;;17.46
65738;BMP280;52478;51.844;6.582;2023-12-07T08:59:39;101733.47;;;17.39
65738;BMP280;52478;51.844;6.582;2023-12-07T09:02:07;101746.25;;;17.36
65738;BMP280;52478;51.844;6.582;2023-12-07T09:04:34;101736.69;;;17.37
65738;BMP280;52478;51.844;6.582;2023-12-07T09:07:00;101743.75;;;17.38
65738;BMP280;52478;51.844;6.582;2023-12-07T09:09:27;101738.53;;;17.40
65738;BMP280;52478;51.844;6.582;2023-12-07T09:11:53;101735.16;;;17.36
65738;BMP280;52478;51.844;6.582;2023-12-07T09:14:20;101730.59;;;17.33
65738;BMP280;52478;51.844;6.582;2023-12-07T09:16:47;101738.59;;;17.31
65738;BMP280;52478;51.844;6.582;2023-12-07T09:19:15;101735.25;;;17.27
65738;BMP280;52478;51.844;6.582;2023-12-07T09:21:41;101736.63;;;17.23
65738;BMP280;52478;51.844;6.582;2023-12-07T09:24:08;101741.34;;;17.31
65738;BMP280;52478;51.844;6.582;2023-12-07T09:26:34;101740.34;;;17.43
65738;BMP280;52478;51.844;6.582;2023-12-07T09:29:02;101746.44;;;17.33
65738;BMP280;52478;51.844;6.582;2023-12-07T09:31:28;101747.97;;;17.34
65738;BMP280;52478;51.844;6.582;2023-12-07T09:33:55;101731.56;;;17.30
65738;BMP280;52478;51.844;6.582;2023-12-07T09:36:23;101731.94;;;17.38
65738;BMP280;52478;51.844;6.582;2023-12-07T09:38:52;101726.41;;;17.38
65738;BMP280;52478;51.844;6.582;2023-12-07T09:41:19;101728.66;;;17.25
65738;BMP280;52478;51.844;6.582;2023-12-07T09:43:46;101733.06;;;17.31
65738;BMP280;52478;51.844;6.582;2023-12-07T09:46:13;101724.94;;;17.28
65738;BMP280;52478;51.844;6.582;2023-12-07T09:48:42;101710.53;;;17.24
65738;BMP280;52478;51.844;6.582;2023-12-07T09:51:10;101713.47;;;17.20
65738;BMP280;52478;51.844;6.582;2023-12-07T09:53:38;101717.91;;;17.18
65738;BMP280;52478;51.844;6.582;2023-12-07T09:56:06;101722.69;;;17.17
65738;BMP280;52478;51.844;6.582;2023-12-07T09:58:33;101720.53;;;17.21
65738;BMP280;52478;51.844;6.582;2023-12-07T10:00:59;101711.06;;;17.13
65738;BMP280;52478;51.844;6.582;2023-12-07T10:03:26;101711.06;;;17.13
65738;BMP280;52478;51.844;6.582;2023-12-07T10:05:54;101716.25;;;17.11
65738;BMP280;52478;51.844;6.582;2023-12-07T10:08:28;101715.63;;;17.16
65738;BMP280;52478;51.844;6.582;2023-12-07T10:11:04;101707.34;;;17.16
65738;BMP280;52478;51.844;6.582;2023-12-07T10:13:33;101707.03;;;17.14
65738;BMP280;52478;51.844;6.582;2023-12-07T10:16:10;101702.69;;;17.22
65738;BMP280;52478;51.844;6.582;2023-12-07T10:18:37;101700.34;;;17.30
65738;BMP280;52478;51.844;6.582;2023-12-07T10:21:06;101695.91;;;17.23
65738;BMP280;52478;51.844;6.582;2023-12-07T10:23:32;101700.66;;;17.23
65738;BMP280;52478;51.844;6.582;2023-12-07T10:25:59;101692.84;;;17.21
65738;BMP280;52478;51.844;6.582;2023-12-07T10:28:27;101683.31;;;17.22
65738;BMP280;52478;51.844;6.582;2023-12-07T10:30:54;101676.22;;;17.30
65738;BMP280;52478;51.844;6.582;2023-12-07T10:33:20;101673.00;;;17.23
65738;BMP280;52478;51.844;6.582;2023-12-07T10:35:47;101673.56;;;17.12
65738;BMP280;52478;51.844;6.582;2023-12-07T10:38:14;101665.84;;;17.16
65738;BMP280;52478;51.844;6.582;2023-12-07T10:40:41;101662.41;;;17.21
65738;BMP280;52478;51.844;6.582;2023-12-07T10:43:08;101664.53;;;17.26
65738;BMP280;52478;51.844;6.582;2023-12-07T10:45:36;101650.41;;;17.24
65738;BMP280;52478;51.844;6.582;2023-12-07T10:48:05;101650.56;;;17.21
65738;BMP280;52478;51.844;6.582;2023-12-07T10:50:34;101652.00;;;17.16
65738;BMP280;52478;51.844;6.582;2023-12-07T10:53:09;101652.88;;;17.22
65738;BMP280;52478;51.844;6.582;2023-12-07T10:55:41;101641.22;;;17.18
65738;BMP280;52478;51.844;6.582;2023-12-07T10:58:09;101631.97;;;17.21
65738;BMP280;52478;51.844;6.582;2023-12-07T11:00:41;101634.44;;;17.19
65738;BMP280;52478;51.844;6.582;2023-12-07T11:03:10;101622.53;;;17.13
65738;BMP280;52478;51.844;6.582;2023-12-07T11:05:37;101622.31;;;17.17
65738;BMP280;52478;51.844;6.582;2023-12-07T11:08:06;101613.91;;;17.11
65738;BMP280;52478;51.844;6.582;2023-12-07T11:10:36;101599.59;;;17.13
65738;BMP280;52478;51.844;6.582;2023-12-07T11:13:13;101600.38;;;17.13
65738;BMP280;52478;51.844;6.582;2023-12-07T11:15:44;101592.38;;;17.15
65738;BMP280;52478;51.844;6.582;2023-12-07T11:18:11;101590.06;;;17.14
65738;BMP280;52478;51.844;6.582;2023-12-07T11:20:40;101596.25;;;17.09
65738;BMP280;52478;51.844;6.582;2023-12-07T11:23:07;101584.13;;;17.06
65738;BMP280;52478;51.844;6.582;2023-12-07T11:25:34;101581.31;;;17.15
65738;BMP280;52478;51.844;6.582;2023-12-07T11:28:01;101584.00;;;17.24
65738;BMP280;52478;51.844;6.582;2023-12-07T11:30:30;101570.31;;;17.21
65738;BMP280;52478;51.844;6.582;2023-12-07T11:32:58;101571.19;;;17.12
65738;BMP280;52478;51.844;6.582;2023-12-07T11:35:25;101568.44;;;17.12
65738;BMP280;52478;51.844;6.582;2023-12-07T11:38:05;101565.00;;;17.17
65738;BMP280;52478;51.844;6.582;2023-12-07T11:40:35;101569.09;;;17.22
65738;BMP280;52478;51.844;6.582;2023-12-07T11:43:02;101559.09;;;17.10
65738;BMP280;52478;51.844;6.582;2023-12-07T11:45:37;101558.44;;;17.15
65738;BMP280;52478;51.844;6.582;2023-12-07T11:48:13;101550.38;;;17.17
65738;BMP280;52478;51.844;6.582;2023-12-07T11:50:53;101534.75;;;17.28
65738;BMP280;52478;51.844;6.582;2023-12-07T11:53:21;101532.88;;;17.20
65738;BMP280;52478;51.844;6.582;2023-12-07T11:55:49;101538.75;;;17.13
65738;BMP280;52478;51.844;6.582;2023-12-07T11:58:16;101539.06;;;17.15
65738;BMP280;52478;51.844;6.582;2023-12-07T12:00:43;101538.41;;;17.20
65738;BMP280;52478;51.844;6.582;2023-12-07T12:03:09;101535.13;;;17.21
65738;BMP280;52478;51.844;6.582;2023-12-07T12:05:37;101525.59;;;17.22
65738;BMP280;52478;51.844;6.582;2023-12-07T12:08:05;101524.06;;;17.21
65738;BMP280;52478;51.844;6.582;2023-12-07T12:10:32;101526.28;;;17.17
65738;BMP280;52478;51.844;6.582;2023-12-07T12:13:01;101522.53;;;17.20
65738;BMP280;52478;51.844;6.582;2023-12-07T12:15:28;101517.97;;;17.17
65738;BMP280;52478;51.844;6.582;2023-12-07T12:17:55;101517.97;;;17.17
65738;BMP280;52478;51.844;6.582;2023-12-07T12:20:22;101509.22;;;17.19
65738;BMP280;52478;51.844;6.582;2023-12-07T12:22:50;101501.75;;;17.25
65738;BMP280;52478;51.844;6.582;2023-12-07T12:25:19;101515.78;;;17.21
65738;BMP280;52478;51.844;6.582;2023-12-07T12:27:48;101505.19;;;17.20
65738;BMP280;52478;51.844;6.582;2023-12-07T12:30:16;101506.53;;;17.24
65738;BMP280;52478;51.844;6.582;2023-12-07T12:32:43;101497.94;;;17.22
65738;BMP280;52478;51.844;6.582;2023-12-07T12:35:10;101487.63;;;17.23
65738;BMP280;52478;51.844;6.582;2023-12-07T12:37:38;101486.88;;;17.22
65738;BMP280;52478;51.844;6.582;2023-12-07T12:40:07;101482.84;;;17.23
65738;BMP280;52478;51.844;6.582;2023-12-07T12:42:34;101475.81;;;17.22
65738;BMP280;52478;51.844;6.582;2023-12-07T12:45:03;101473.88;;;17.28
65738;BMP280;52478;51.844;6.582;2023-12-07T12:47:29;101472.81;;;17.26
65738;BMP280;52478;51.844;6.582;2023-12-07T12:49:56;101476.38;;;17.26
65738;BMP280;52478;51.844;6.582;2023-12-07T12:52:23;101472.56;;;17.24
65738;BMP280;52478;51.844;6.582;2023-12-07T12:54:51;101460.53;;;17.27
65738;BMP280;52478;51.844;6.582;2023-12-07T12:57:19;101460.16;;;17.34
65738;BMP280;52478;51.844;6.582;2023-12-07T12:59:46;101466.63;;;17.45
65738;BMP280;52478;51.844;6.582;2023-12-07T13:02:13;101460.25;;;17.39
65738;BMP280;52478;51.844;6.582;2023-12-07T13:04:39;101463.19;;;17.36
65738;BMP280;52478;51.844;6.582;2023-12-07T13:07:06;101455.53;;;17.45
65738;BMP280;52478;51.844;6.582;2023-12-07T13:09:32;101448.56;;;17.50
65738;BMP280;52478;51.844;6.582;2023-12-07T13:11:59;101441.97;;;17.47
65738;BMP280;52478;51.844;6.582;2023-12-07T13:14:27;101441.53;;;17.49
65738;BMP280;52478;51.844;6.582;2023-12-07T13:16:53;101437.78;;;17.52
65738;BMP280;52478;51.844;6.582;2023-12-07T13:19:20;101431.47;;;17.51
65738;BMP280;52478;51.844;6.582;2023-12-07T13:21:47;101429.94;;;17.50
65738;BMP280;52478;51.844;6.582;2023-12-07T13:24:13;101430.53;;;17.54
65738;BMP280;52478;51.844;6.582;2023-12-07T13:26:40;101442.66;;;17.57
65738;BMP280;52478;51.844;6.582;2023-12-07T13:29:06;101442.66;;;17.57
65738;BMP280;52478;51.844;6.582;2023-12-07T13:31:34;101437.56;;;17.55
65738;BMP280;52478;51.844;6.582;2023-12-07T13:34:01;101433.31;;;17.54
65738;BMP280;52478;51.844;6.582;2023-12-07T13:36:27;101428.94;;;17.48
65738;BMP280;52478;51.844;6.582;2023-12-07T13:38:55;101437.69;;;17.46
65738;BMP280;52478;51.844;6.582;2023-12-07T13:41:22;101429.03;;;17.53
65738;BMP280;52478;51.844;6.582;2023-12-07T13:43:49;101425.72;;;17.55
65738;BMP280;52478;51.844;6.582;2023-12-07T13:46:16;101423.19;;;17.51
65738;BMP280;52478;51.844;6.582;2023-12-07T13:48:43;101418.69;;;17.54
65738;BMP280;52478;51.844;6.582;2023-12-07T13:51:10;101416.59;;;17.49
65738;BMP280;52478;51.844;6.582;2023-12-07T13:53:37;101403.44;;;17.44
65738;BMP280;52478;51.844;6.582;2023-12-07T13:56:05;101408.03;;;17.47
65738;BMP280;52478;51.844;6.582;2023-12-07T13:58:33;101405.72;;;17.45